createdAt,value
2023-02-24T00:00:32.077Z,15.85
2023-02-24T00:03:05.805Z,15.90
2023-02-24T00:05:39.225Z,15.73
2023-02-24T00:10:37.533Z,14.13
2023-02-24T00:13:07.570Z,14.50
2023-02-24T00:15:35.452Z,14.75
2023-02-24T00:18:07.116Z,13.70
2023-02-24T00:20:35.719Z,14.65
2023-02-24T00:23:03.951Z,14.20
2023-02-24T00:25:31.875Z,13.55
2023-02-24T00:28:01.698Z,14.27
2023-02-24T00:30:33.032Z,14.05
2023-02-24T00:33:03.350Z,13.00
2023-02-24T00:35:32.173Z,13.02
2023-02-24T00:38:00.904Z,12.77
2023-02-24T00:40:30.731Z,13.30
2023-02-24T00:43:00.644Z,12.98
2023-02-24T00:45:30.874Z,10.60
2023-02-24T00:48:00.235Z,7.43
2023-02-24T00:50:28.160Z,7.18
2023-02-24T00:52:56.278Z,6.65
2023-02-24T00:55:24.431Z,6.07
2023-02-24T00:57:53.840Z,6.10
2023-02-24T01:00:23.452Z,6.00
2023-02-24T01:02:51.381Z,6.63
2023-02-24T01:05:21.211Z,6.38
2023-02-24T01:07:49.108Z,6.15
2023-02-24T01:10:18.286Z,6.57
2023-02-24T01:12:51.037Z,6.45
2023-02-24T01:15:22.898Z,3.72
2023-02-24T01:17:50.867Z,4.70
2023-02-24T01:20:20.281Z,3.83
2023-02-24T01:22:50.125Z,3.60
2023-02-24T01:25:20.193Z,3.45
2023-02-24T01:27:48.112Z,3.47
2023-02-24T01:30:17.612Z,3.80
2023-02-24T01:32:47.330Z,3.75
2023-02-24T01:35:15.916Z,3.30
2023-02-24T01:37:45.597Z,3.63
2023-02-24T01:40:21.030Z,3.10
2023-02-24T01:42:49.382Z,3.15
2023-02-24T01:45:25.064Z,3.97
2023-02-24T01:47:54.982Z,3.60
2023-02-24T01:50:26.221Z,3.58
2023-02-24T01:52:58.796Z,3.35
2023-02-24T01:55:32.307Z,2.87
2023-02-24T01:58:04.933Z,3.30
2023-02-24T02:00:38.983Z,2.65
2023-02-24T02:03:13.156Z,2.78
2023-02-24T02:05:45.199Z,2.65
2023-02-24T02:08:15.469Z,2.70
2023-02-24T02:10:45.242Z,2.55
2023-02-24T02:13:14.945Z,3.05
2023-02-24T02:15:56.787Z,2.40
2023-02-24T02:18:38.271Z,2.65
2023-02-24T02:21:51.495Z,2.30
2023-02-24T02:24:28.360Z,2.53
2023-02-24T02:27:36.915Z,2.30
2023-02-24T02:30:45.834Z,2.90
2023-02-24T02:33:39.486Z,2.50
2023-02-24T02:36:17.659Z,2.10
2023-02-24T02:38:54.538Z,2.97
2023-02-24T02:41:28.878Z,2.70
2023-02-24T02:44:07.482Z,3.00
2023-02-24T02:46:43.065Z,2.47
2023-02-24T02:49:18.943Z,1.83
2023-02-24T02:51:52.715Z,2.17
2023-02-24T02:54:29.735Z,2.40
2023-02-24T02:57:03.258Z,1.85
2023-02-24T02:59:35.074Z,1.95
2023-02-24T03:02:14.891Z,2.92
2023-02-24T03:04:48.608Z,2.30
2023-02-24T03:07:19.973Z,2.13
2023-02-24T03:09:56.241Z,1.95
2023-02-24T03:12:26.675Z,1.98
2023-02-24T03:14:59.447Z,2.22
2023-02-24T03:17:31.580Z,1.88
2023-02-24T03:20:15.543Z,1.77
2023-02-24T03:22:51.962Z,2.55
2023-02-24T03:25:24.671Z,2.65
2023-02-24T03:27:57.053Z,2.23
2023-02-24T03:30:30.318Z,2.08
2023-02-24T03:33:03.573Z,2.08
2023-02-24T03:35:38.165Z,2.58
2023-02-24T03:38:10.201Z,2.20
2023-02-24T03:40:39.255Z,2.00
2023-02-24T03:43:16.995Z,2.13
2023-02-24T03:45:46.663Z,2.05
2023-02-24T03:48:16.020Z,2.85
2023-02-24T03:50:46.811Z,2.47
2023-02-24T03:53:54.506Z,2.38
2023-02-24T03:56:29.966Z,2.40
2023-02-24T03:59:13.436Z,2.17
2023-02-24T04:01:51.956Z,3.22
2023-02-24T04:04:33.203Z,3.38
2023-02-24T04:07:16.267Z,2.47
2023-02-24T04:09:51.167Z,2.55
2023-02-24T04:12:26.709Z,2.70
2023-02-24T04:15:08.083Z,2.42
2023-02-24T04:17:43.112Z,2.47
2023-02-24T04:20:16.736Z,2.33
2023-02-24T04:22:54.916Z,2.08
2023-02-24T04:25:26.743Z,3.38
2023-02-24T04:27:59.288Z,2.13
2023-02-24T04:30:32.076Z,2.63
2023-02-24T04:33:00.227Z,2.33
2023-02-24T04:35:29.052Z,2.10
2023-02-24T04:37:57.949Z,2.83
2023-02-24T04:40:27.843Z,2.65
2023-02-24T04:42:55.989Z,2.03
2023-02-24T04:45:26.161Z,2.88
2023-02-24T04:48:01.033Z,2.30
2023-02-24T04:50:31.023Z,1.95
2023-02-24T04:53:01.603Z,2.70
2023-02-24T04:55:33.243Z,2.08
2023-02-24T04:58:02.314Z,2.25
2023-02-24T05:00:35.309Z,1.88
2023-02-24T05:03:04.640Z,2.08
2023-02-24T05:05:34.286Z,3.00
2023-02-24T05:08:04.175Z,2.25
2023-02-24T05:10:38.871Z,1.98
2023-02-24T05:13:07.804Z,1.73
2023-02-24T05:15:40.683Z,1.70
2023-02-24T05:18:14.099Z,1.90
2023-02-24T05:21:01.949Z,2.42
2023-02-24T05:23:31.857Z,1.67
2023-02-24T05:26:02.477Z,2.17
2023-02-24T05:28:31.799Z,1.60
2023-02-24T05:31:08.414Z,1.77
2023-02-24T05:33:37.740Z,2.03
2023-02-24T05:36:08.550Z,1.58
2023-02-24T05:38:38.126Z,1.40
2023-02-24T05:41:08.953Z,1.58
2023-02-24T05:43:41.652Z,1.52
2023-02-24T05:46:09.610Z,2.22
2023-02-24T05:48:37.991Z,1.80
2023-02-24T05:51:08.223Z,1.83
2023-02-24T05:53:36.352Z,2.05
2023-02-24T05:56:05.981Z,2.45
2023-02-24T05:58:36.464Z,1.60
2023-02-24T06:01:16.167Z,1.25
2023-02-24T06:03:47.900Z,1.73
2023-02-24T06:06:16.426Z,1.40
2023-02-24T06:08:50.020Z,1.42
2023-02-24T06:11:19.079Z,1.10
2023-02-24T06:13:49.019Z,1.58
2023-02-24T06:16:18.825Z,1.27
2023-02-24T06:18:49.876Z,1.77
2023-02-24T06:21:17.926Z,1.25
2023-02-24T06:23:46.280Z,1.58
2023-02-24T06:26:19.253Z,1.27
2023-02-24T06:28:49.907Z,1.60
2023-02-24T06:31:18.069Z,1.63
2023-02-24T06:33:45.999Z,1.50
2023-02-24T06:36:14.674Z,1.35
2023-02-24T06:38:43.236Z,1.60
2023-02-24T06:41:11.899Z,1.75
2023-02-24T06:43:40.572Z,1.30
2023-02-24T06:46:11.047Z,2.67
2023-02-24T06:48:39.221Z,1.35
2023-02-24T06:51:08.561Z,1.45
2023-02-24T06:53:36.514Z,1.75
2023-02-24T06:56:14.854Z,1.35
2023-02-24T06:58:45.058Z,1.30
2023-02-24T07:01:16.015Z,1.55
2023-02-24T07:04:02.643Z,1.27
2023-02-24T07:06:32.044Z,1.50
2023-02-24T07:09:00.497Z,1.60
2023-02-24T07:11:29.972Z,2.05
2023-02-24T07:13:59.212Z,1.35
2023-02-24T07:16:30.623Z,1.15
2023-02-24T07:19:02.631Z,1.48
2023-02-24T07:21:39.511Z,1.45
2023-02-24T07:24:08.994Z,1.20
2023-02-24T07:26:41.587Z,1.38
2023-02-24T07:29:11.418Z,1.10
2023-02-24T07:31:42.957Z,1.20
2023-02-24T07:34:15.091Z,1.00
2023-02-24T07:36:49.297Z,1.42
2023-02-24T07:39:18.355Z,1.38
2023-02-24T07:41:49.515Z,1.25
2023-02-24T07:44:19.121Z,1.60
2023-02-24T07:46:49.339Z,1.52
2023-02-24T07:49:20.073Z,1.45
2023-02-24T07:51:52.481Z,1.73
2023-02-24T07:54:21.146Z,1.87
2023-02-24T07:56:56.726Z,2.00
2023-02-24T07:59:27.417Z,1.95
2023-02-24T08:01:57.386Z,1.95
2023-02-24T08:04:27.626Z,1.40
2023-02-24T08:07:12.560Z,1.73
2023-02-24T08:10:03.261Z,1.10
2023-02-24T08:12:31.177Z,1.65
2023-02-24T08:15:00.222Z,1.88
2023-02-24T08:17:29.533Z,1.50
2023-02-24T08:20:21.922Z,2.47
2023-02-24T08:22:53.373Z,1.73
2023-02-24T08:25:23.053Z,1.58
2023-02-24T08:28:12.257Z,2.20
2023-02-24T08:30:45.615Z,1.50
2023-02-24T08:33:20.321Z,1.70
2023-02-24T08:35:53.005Z,1.40
2023-02-24T08:38:25.904Z,1.83
2023-02-24T08:43:32.996Z,1.52
2023-02-24T08:46:04.675Z,1.80
2023-02-24T08:48:42.150Z,2.03
2023-02-24T08:51:15.048Z,2.08
2023-02-24T08:53:43.762Z,1.83
2023-02-24T08:56:13.784Z,2.17
2023-02-24T08:58:47.291Z,2.13
2023-02-24T09:01:20.531Z,1.98
2023-02-24T09:06:25.428Z,2.10
2023-02-24T09:09:17.159Z,1.73
2023-02-24T09:11:46.697Z,2.00
2023-02-24T09:14:27.293Z,1.45
2023-02-24T09:17:03.194Z,2.00
2023-02-24T09:19:54.820Z,1.85
2023-02-24T09:22:32.460Z,1.60
2023-02-24T09:25:23.963Z,2.78
2023-02-24T09:27:55.275Z,2.10
2023-02-24T09:30:39.011Z,2.03
2023-02-24T09:33:08.908Z,2.22
2023-02-24T09:35:41.863Z,2.08
2023-02-24T09:38:09.853Z,1.42
2023-02-24T09:40:48.778Z,2.13
2023-02-24T09:43:21.111Z,1.77
2023-02-24T09:46:14.343Z,1.73
2023-02-24T09:48:51.490Z,1.77
2023-02-24T09:51:28.820Z,1.65
2023-02-24T09:54:01.936Z,2.42
2023-02-24T09:56:37.324Z,2.13
2023-02-24T09:59:13.690Z,1.27
2023-02-24T10:01:46.774Z,1.90
2023-02-24T10:04:31.568Z,1.48
2023-02-24T10:07:06.255Z,1.27
2023-02-24T10:09:38.536Z,1.52
2023-02-24T10:12:11.720Z,1.42
2023-02-24T10:17:24.353Z,1.40
2023-02-24T10:20:00.149Z,1.55
2023-02-24T10:22:51.508Z,1.65
2023-02-24T10:25:36.146Z,1.10
2023-02-24T10:28:16.969Z,1.10
2023-02-24T10:31:01.634Z,1.42
2023-02-24T10:33:38.785Z,0.93
2023-02-24T10:36:12.580Z,1.38
2023-02-24T10:38:45.375Z,1.30
2023-02-24T10:41:14.695Z,1.67
2023-02-24T10:43:53.934Z,1.27
2023-02-24T10:46:41.136Z,1.17
2023-02-24T10:49:16.518Z,1.50
2023-02-24T10:51:52.345Z,1.40
2023-02-24T10:55:05.120Z,1.63
2023-02-24T10:57:44.737Z,2.50
2023-02-24T11:00:32.585Z,1.40
2023-02-24T11:03:10.550Z,1.50
2023-02-24T11:05:44.279Z,1.52
2023-02-24T11:08:32.899Z,1.40
2023-02-24T11:11:07.332Z,1.52
2023-02-24T11:13:55.098Z,1.83
2023-02-24T11:16:40.357Z,1.40
2023-02-24T11:19:08.969Z,1.73
2023-02-24T11:21:38.756Z,1.40
2023-02-24T11:24:07.778Z,1.42
2023-02-24T11:26:41.788Z,2.10
2023-02-24T11:29:32.603Z,1.73
2023-02-24T11:32:16.952Z,1.90
2023-02-24T11:34:52.020Z,1.30
2023-02-24T11:37:36.040Z,1.50
2023-02-24T11:40:09.853Z,1.63
2023-02-24T11:42:46.240Z,1.75
2023-02-24T11:45:26.256Z,1.50
2023-02-24T11:47:58.478Z,1.40
2023-02-24T11:50:43.630Z,1.70
2023-02-24T11:53:23.837Z,1.77
2023-02-24T11:55:59.230Z,1.35
2023-02-24T11:58:36.643Z,1.50
2023-02-24T12:01:16.027Z,1.85
2023-02-24T12:03:56.216Z,1.33
2023-02-24T12:06:31.321Z,1.48
2023-02-24T12:09:07.747Z,1.90
2023-02-24T12:11:41.653Z,1.60
2023-02-24T12:14:23.431Z,1.60
2023-02-24T12:16:57.931Z,1.55
2023-02-24T12:19:31.636Z,1.27
2023-02-24T12:22:05.853Z,1.33
2023-02-24T12:24:37.388Z,1.23
2023-02-24T12:27:18.374Z,1.20
2023-02-24T12:30:06.373Z,1.42
2023-02-24T12:33:01.762Z,1.45
2023-02-24T12:35:39.960Z,1.33
2023-02-24T12:38:22.136Z,1.35
2023-02-24T12:40:56.904Z,0.98
2023-02-24T12:43:31.581Z,1.17
2023-02-24T12:46:07.125Z,1.40
2023-02-24T12:48:59.782Z,1.73
2023-02-24T12:51:35.160Z,1.63
2023-02-24T12:54:10.394Z,1.38
2023-02-24T12:56:47.834Z,1.40
2023-02-24T12:59:21.276Z,1.20
2023-02-24T13:02:02.343Z,1.30
2023-02-24T13:04:47.782Z,1.15
2023-02-24T13:07:33.781Z,2.03
2023-02-24T13:10:11.103Z,1.17
2023-02-24T13:12:43.777Z,1.55
2023-02-24T13:15:20.780Z,1.60
2023-02-24T13:17:52.099Z,1.30
2023-02-24T13:20:32.597Z,1.65
2023-02-24T13:23:03.507Z,1.20
2023-02-24T13:25:35.050Z,1.67
2023-02-24T13:28:05.402Z,1.48
2023-02-24T13:30:39.167Z,1.70
2023-02-24T13:33:29.254Z,1.35
2023-02-24T13:36:12.688Z,1.40
2023-02-24T13:38:42.939Z,1.30
2023-02-24T13:41:23.861Z,2.08
2023-02-24T13:43:57.939Z,1.42
2023-02-24T13:46:29.863Z,1.35
2023-02-24T13:49:33.050Z,1.25
2023-02-24T13:52:04.904Z,1.23
2023-02-24T13:55:11.030Z,1.38
2023-02-24T13:57:49.930Z,1.17
2023-02-24T14:00:29.012Z,1.50
2023-02-24T14:02:58.139Z,1.83
2023-02-24T14:05:31.138Z,1.52
2023-02-24T14:07:59.842Z,1.23
2023-02-24T14:10:29.707Z,2.13
2023-02-24T14:13:07.482Z,1.58
2023-02-24T14:15:36.175Z,1.55
2023-02-24T14:18:06.682Z,1.58
2023-02-24T14:20:37.986Z,1.55
2023-02-24T14:23:23.147Z,1.70
2023-02-24T14:25:56.713Z,1.77
2023-02-24T14:28:28.091Z,2.00
2023-02-24T14:30:58.979Z,1.70
2023-02-24T14:33:31.254Z,1.75
2023-02-24T14:36:01.696Z,1.52
2023-02-24T14:38:35.665Z,1.70
2023-02-24T14:41:05.822Z,1.50
2023-02-24T14:43:33.890Z,1.67
2023-02-24T14:46:07.042Z,1.30
2023-02-24T14:51:08.741Z,1.60
2023-02-24T14:53:41.550Z,1.50
2023-02-24T14:56:13.134Z,1.58
2023-02-24T14:58:45.397Z,1.45
2023-02-24T15:01:24.038Z,1.50
2023-02-24T15:03:55.926Z,1.20
2023-02-24T15:06:28.438Z,1.67
2023-02-24T15:09:00.184Z,1.50
2023-02-24T15:11:30.095Z,1.42
2023-02-24T15:14:00.907Z,1.55
2023-02-24T15:16:34.381Z,1.42
2023-02-24T15:19:02.387Z,1.15
2023-02-24T15:21:34.061Z,1.10
2023-02-24T15:24:02.558Z,1.20
2023-02-24T15:26:32.745Z,1.45
2023-02-24T15:29:03.270Z,1.60
2023-02-24T15:31:31.730Z,1.20
2023-02-24T15:34:01.734Z,0.98
2023-02-24T15:36:34.744Z,1.00
2023-02-24T15:39:06.567Z,1.23
2023-02-24T15:41:45.506Z,1.33
2023-02-24T15:44:27.790Z,1.30
2023-02-24T15:46:56.176Z,1.17
2023-02-24T15:49:24.087Z,1.10
2023-02-24T15:51:54.332Z,1.00
2023-02-24T15:54:30.235Z,1.13
2023-02-24T15:57:00.397Z,1.50
2023-02-24T15:59:29.197Z,1.27
2023-02-24T16:01:57.482Z,1.25
2023-02-24T16:04:27.529Z,1.58
2023-02-24T16:06:58.657Z,1.90
2023-02-24T16:09:33.601Z,1.75
2023-02-24T16:12:04.486Z,1.65
2023-02-24T16:14:33.444Z,1.52
2023-02-24T16:17:09.936Z,1.90
2023-02-24T16:19:38.234Z,1.90
2023-02-24T16:22:07.456Z,1.70
2023-02-24T16:24:35.273Z,2.05
2023-02-24T16:27:03.249Z,1.90
2023-02-24T16:29:31.525Z,2.05
2023-02-24T16:31:59.690Z,1.80
2023-02-24T16:34:27.677Z,2.10
2023-02-24T16:36:55.505Z,2.20
2023-02-24T16:39:24.924Z,2.47
2023-02-24T16:41:53.592Z,2.22
2023-02-24T16:44:23.200Z,2.60
2023-02-24T16:46:51.117Z,2.40
2023-02-24T16:49:21.053Z,2.92
2023-02-24T16:51:48.982Z,2.72
2023-02-24T16:54:17.040Z,3.08
2023-02-24T16:56:46.704Z,3.05
2023-02-24T16:59:14.635Z,3.30
2023-02-24T17:01:43.304Z,3.50
2023-02-24T17:04:13.462Z,3.65
2023-02-24T17:06:41.582Z,3.67
2023-02-24T17:09:09.475Z,4.07
2023-02-24T17:11:37.360Z,4.05
2023-02-24T17:14:06.697Z,3.83
2023-02-24T17:16:34.655Z,3.13
2023-02-24T17:19:02.636Z,4.22
2023-02-24T17:21:30.530Z,4.82
2023-02-24T17:23:58.377Z,4.38
2023-02-24T17:26:26.380Z,4.30
2023-02-24T17:28:54.228Z,4.85
2023-02-24T17:31:24.061Z,5.20
2023-02-24T17:33:52.059Z,5.40
2023-02-24T17:36:20.121Z,5.25
2023-02-24T17:38:48.121Z,4.88
2023-02-24T17:41:16.017Z,6.10
2023-02-24T17:43:43.890Z,5.97
2023-02-24T17:46:11.778Z,5.10
2023-02-24T17:48:41.042Z,5.93
2023-02-24T17:51:09.124Z,5.57
2023-02-24T17:53:37.013Z,5.63
2023-02-24T17:56:05.649Z,6.13
2023-02-24T17:58:34.356Z,7.07
2023-02-24T18:01:03.282Z,6.97
2023-02-24T18:03:31.987Z,7.30
2023-02-24T18:06:03.025Z,7.55
2023-02-24T18:08:32.870Z,7.80
2023-02-24T18:11:00.953Z,7.95
2023-02-24T18:13:30.063Z,8.30
2023-02-24T18:15:58.199Z,7.25
2023-02-24T18:18:26.928Z,7.68
2023-02-24T18:20:58.622Z,8.23
2023-02-24T18:23:27.851Z,7.28
2023-02-24T18:25:55.692Z,8.00
2023-02-24T18:28:23.601Z,7.90
2023-02-24T18:30:51.598Z,8.05
2023-02-24T18:33:19.853Z,8.10
2023-02-24T18:35:47.908Z,8.52
2023-02-24T18:38:17.640Z,8.18
2023-02-24T18:40:46.895Z,8.52
2023-02-24T18:43:14.748Z,8.57
2023-02-24T18:45:42.557Z,9.52
2023-02-24T18:48:10.434Z,9.45
2023-02-24T18:50:38.312Z,9.30
2023-02-24T18:53:06.258Z,9.23
2023-02-24T18:55:36.047Z,9.55
2023-02-24T18:58:05.260Z,9.98
2023-02-24T19:00:33.120Z,9.35
2023-02-24T19:03:01.029Z,9.52
2023-02-24T19:05:37.896Z,9.50
2023-02-24T19:08:06.556Z,9.52
2023-02-24T19:10:34.571Z,9.75
2023-02-24T19:13:02.399Z,9.73
2023-02-24T19:15:31.728Z,9.30
2023-02-24T19:18:01.058Z,9.77
2023-02-24T19:20:29.098Z,9.60
2023-02-24T19:22:56.946Z,9.20
2023-02-24T19:25:24.788Z,10.13
2023-02-24T19:27:54.396Z,9.57
2023-02-24T19:30:22.440Z,9.73
2023-02-24T19:32:51.699Z,9.10
2023-02-24T19:35:19.803Z,9.70
2023-02-24T19:37:49.131Z,10.45
2023-02-24T19:40:18.238Z,9.20
2023-02-24T19:42:47.187Z,9.27
2023-02-24T19:45:15.100Z,9.85
2023-02-24T19:47:44.135Z,9.43
2023-02-24T19:50:14.721Z,10.85
2023-02-24T19:52:43.244Z,11.23
2023-02-24T19:55:12.596Z,10.68
2023-02-24T19:57:40.482Z,10.65
2023-02-24T20:00:11.543Z,10.38
2023-02-24T20:02:42.313Z,10.18
2023-02-24T20:05:10.642Z,10.32
2023-02-24T20:07:39.992Z,10.13
2023-02-24T20:10:08.747Z,9.95
2023-02-24T20:12:36.789Z,10.15
2023-02-24T20:15:04.890Z,10.05
2023-02-24T20:17:34.768Z,9.50
2023-02-24T20:20:02.633Z,9.90
2023-02-24T20:22:30.539Z,9.93
2023-02-24T20:24:59.778Z,10.30
2023-02-24T20:27:27.667Z,10.00
2023-02-24T20:29:56.965Z,10.98
2023-02-24T20:32:25.013Z,10.70
2023-02-24T20:34:53.027Z,10.02
2023-02-24T20:37:20.926Z,11.15
2023-02-24T20:39:48.862Z,10.73
2023-02-24T20:42:18.130Z,10.32
2023-02-24T20:44:46.034Z,11.45
2023-02-24T20:47:13.946Z,11.45
2023-02-24T20:49:41.927Z,11.02
2023-02-24T20:52:10.176Z,11.18
2023-02-24T20:54:38.146Z,10.70
2023-02-24T20:57:08.871Z,11.65
2023-02-24T20:59:41.583Z,12.30
2023-02-24T21:04:38.047Z,11.88
2023-02-24T21:07:05.963Z,11.88
2023-02-24T21:09:37.102Z,11.65
2023-02-24T21:12:06.413Z,12.10
2023-02-24T21:14:34.731Z,11.38
2023-02-24T21:17:04.005Z,11.80
2023-02-24T21:19:31.875Z,11.50
2023-02-24T21:21:59.738Z,11.15
2023-02-24T21:24:27.579Z,12.43
2023-02-24T21:26:55.425Z,12.20
2023-02-24T21:29:23.340Z,12.50
2023-02-24T21:31:51.397Z,12.38
2023-02-24T21:34:20.700Z,11.82
2023-02-24T21:36:48.619Z,11.40
2023-02-24T21:39:18.003Z,11.93
2023-02-24T21:41:45.972Z,10.43
2023-02-24T21:44:15.311Z,11.68
2023-02-24T21:46:43.304Z,11.63
2023-02-24T21:49:14.291Z,11.15
2023-02-24T21:51:43.603Z,10.73
2023-02-24T21:54:12.446Z,11.20
2023-02-24T21:56:40.434Z,10.48
2023-02-24T21:59:09.898Z,10.38
2023-02-24T22:01:39.820Z,10.73
2023-02-24T22:04:10.198Z,10.80
2023-02-24T22:06:40.205Z,9.40
2023-02-24T22:09:10.761Z,9.65
2023-02-24T22:11:40.738Z,10.02
2023-02-24T22:14:09.815Z,9.10
2023-02-24T22:16:37.888Z,8.57
2023-02-24T22:19:05.962Z,9.88
2023-02-24T22:21:34.355Z,9.27
2023-02-24T22:24:04.397Z,9.38
2023-02-24T22:26:34.096Z,9.88
2023-02-24T22:29:02.402Z,9.00
2023-02-24T22:31:32.062Z,8.05
2023-02-24T22:34:00.662Z,9.50
2023-02-24T22:36:31.059Z,8.25
2023-02-24T22:39:01.163Z,8.93
2023-02-24T22:41:31.120Z,8.20
2023-02-24T22:44:01.447Z,8.10
2023-02-24T22:46:31.671Z,7.55
2023-02-24T22:48:59.841Z,7.47
2023-02-24T22:51:28.357Z,7.20
2023-02-24T22:53:57.049Z,7.53
2023-02-24T22:56:26.847Z,6.22
2023-02-24T22:58:55.293Z,6.55
2023-02-24T23:01:26.443Z,6.10
2023-02-24T23:03:54.398Z,6.75
2023-02-24T23:06:25.991Z,5.57
2023-02-24T23:08:55.400Z,4.78
2023-02-24T23:11:27.701Z,5.20
2023-02-24T23:13:57.671Z,4.40
2023-02-24T23:16:31.599Z,4.53
2023-02-24T23:19:01.463Z,3.03
2023-02-24T23:21:34.767Z,3.33
2023-02-24T23:26:34.277Z,3.50
2023-02-24T23:29:02.617Z,2.65
2023-02-24T23:31:32.004Z,2.80
2023-02-24T23:34:02.112Z,2.80
2023-02-24T23:36:31.047Z,2.78
2023-02-24T23:38:58.968Z,2.72
2023-02-24T23:41:26.941Z,3.40
2023-02-24T23:43:54.853Z,2.58
2023-02-24T23:46:23.071Z,2.65
2023-02-24T23:48:53.809Z,2.60
2023-02-24T23:51:21.978Z,3.05
2023-02-24T23:53:50.403Z,2.90
2023-02-24T23:56:21.193Z,2.53
2023-02-24T23:58:51.688Z,2.17
